Time;durP1;ratioP1;P1;durP2;ratioP2;P2;SDS_P1;SDS_P2;PMS_P1;PMS_P2;Temp;Humidity;BMP_temperature;BMP_pressure;BME280_temperature;BME280_humidity;BME280_pressure;Samples;Min_cycle;Max_cycle;Signal;HPM_P1;HPM_P2
2023/12/14 00:01:33;;;;;;;11.80;11.40;;;7.10;99.90;;;;;;5107193;28;20221;-85
2023/12/14 00:04:13;;;;;;;12.00;11.60;;;7.10;99.90;;;;;;5106400;28;20275;-85
2023/12/14 00:06:52;;;;;;;11.93;11.53;;;7.00;99.90;;;;;;5100653;28;20237;-85
2023/12/14 00:09:21;;;;;;;11.80;11.40;;;7.10;99.90;;;;;;5098075;28;20233;-84
2023/12/14 00:11:53;;;;;;;11.97;11.57;;;7.00;99.90;;;;;;5106242;28;20241;-84
2023/12/14 00:14:20;;;;;;;12.00;11.60;;;7.10;99.90;;;;;;5107383;28;20233;-83
2023/12/14 00:16:49;;;;;;;11.83;11.43;;;7.00;99.90;;;;;;5107083;28;20291;-84
2023/12/14 00:19:19;;;;;;;12.00;11.60;;;7.00;99.90;;;;;;5107293;28;20226;-84
2023/12/14 00:21:49;;;;;;;11.90;11.50;;;7.00;99.90;;;;;;5108550;28;20229;-84
2023/12/14 00:24:19;;;;;;;11.67;11.27;;;7.00;99.90;;;;;;5114234;28;20229;-84
2023/12/14 00:26:46;;;;;;;11.87;11.47;;;7.00;99.90;;;;;;5107151;28;20240;-83
2023/12/14 00:29:19;;;;;;;11.73;11.33;;;6.90;99.90;;;;;;5106548;28;20322;-83
2023/12/14 00:31:46;;;;;;;11.73;11.33;;;6.90;99.90;;;;;;5107402;28;20280;-85
2023/12/14 00:34:15;;;;;;;11.80;11.40;;;6.80;99.90;;;;;;5107044;28;20229;-84
2023/12/14 00:36:47;;;;;;;11.80;11.40;;;6.80;99.90;;;;;;5106917;28;20233;-84
2023/12/14 00:39:14;;;;;;;11.87;11.47;;;6.80;99.90;;;;;;5110543;28;20328;-83
2023/12/14 00:41:44;;;;;;;12.17;11.77;;;6.80;99.90;;;;;;5109918;28;20221;-84
2023/12/14 00:44:15;;;;;;;11.97;11.57;;;6.80;99.90;;;;;;5108923;28;20291;-84
2023/12/14 00:46:42;;;;;;;11.80;11.40;;;6.80;99.90;;;;;;5107624;28;20237;-83
2023/12/14 00:49:11;;;;;;;12.10;11.70;;;6.90;99.90;;;;;;5107236;28;20260;-84
2023/12/14 00:54:19;;;;;;;12.10;11.70;;;6.80;99.90;;;;;;5106449;28;20221;-84
2023/12/14 00:56:59;;;;;;;12.00;11.60;;;6.80;99.90;;;;;;5106416;28;20244;-84
2023/12/14 00:59:36;;;;;;;11.83;11.43;;;6.80;99.90;;;;;;5106765;28;20233;-83
2023/12/14 01:02:05;;;;;;;12.23;11.83;;;6.90;99.90;;;;;;5106648;28;20279;-84
2023/12/14 01:04:34;;;;;;;11.77;11.37;;;6.80;99.90;;;;;;5106483;28;20356;-84
2023/12/14 01:07:14;;;;;;;12.03;11.63;;;6.80;99.90;;;;;;5104291;28;20229;-84
2023/12/14 01:09:43;;;;;;;12.10;11.70;;;6.80;99.90;;;;;;5095901;28;20226;-84
2023/12/14 01:12:11;;;;;;;11.97;11.57;;;6.80;99.90;;;;;;5108856;28;20229;-85
2023/12/14 01:14:44;;;;;;;11.90;11.50;;;6.70;99.90;;;;;;5106227;28;20237;-84
2023/12/14 01:17:11;;;;;;;11.93;11.53;;;6.80;99.90;;;;;;5088890;28;20230;-85
2023/12/14 01:19:41;;;;;;;12.10;11.70;;;6.70;99.90;;;;;;5107025;28;20221;-84
2023/12/14 01:22:10;;;;;;;12.03;11.63;;;6.70;99.90;;;;;;5098161;28;20230;-85
2023/12/14 01:24:40;;;;;;;12.10;11.70;;;6.70;99.90;;;;;;5099852;28;20230;-84
2023/12/14 01:27:09;;;;;;;12.13;11.73;;;6.70;99.90;;;;;;5106460;28;20248;-84
2023/12/14 01:29:41;;;;;;;12.70;12.20;;;6.70;99.90;;;;;;5094091;28;20234;-85
2023/12/14 01:32:08;;;;;;;12.07;11.67;;;6.60;99.90;;;;;;5102872;28;20234;-85
2023/12/14 01:34:38;;;;;;;12.07;11.67;;;6.60;99.90;;;;;;5106249;28;20252;-85
2023/12/14 01:37:08;;;;;;;12.20;11.80;;;6.60;99.90;;;;;;5106117;28;20225;-85
2023/12/14 01:39:35;;;;;;;12.33;11.93;;;6.60;99.90;;;;;;5105975;28;20229;-84
2023/12/14 01:42:05;;;;;;;12.10;11.70;;;6.60;99.90;;;;;;5105926;28;20295;-85
2023/12/14 01:44:34;;;;;;;12.20;11.80;;;6.60;99.90;;;;;;5106283;28;20686;-84
2023/12/14 01:47:07;;;;;;;12.27;11.87;;;6.60;99.90;;;;;;5106290;28;20259;-84
2023/12/14 01:49:34;;;;;;;12.70;12.20;;;6.70;99.90;;;;;;5106363;28;20255;-85
2023/12/14 01:52:04;;;;;;;12.40;12.00;;;6.60;99.90;;;;;;5107079;28;20226;-85
2023/12/14 01:54:33;;;;;;;12.37;11.97;;;6.60;99.90;;;;;;5106358;28;20237;-85
2023/12/14 01:57:01;;;;;;;12.40;12.00;;;6.60;99.90;;;;;;5106174;28;20333;-85
2023/12/14 01:59:31;;;;;;;12.43;12.03;;;6.60;99.90;;;;;;5105671;28;20214;-84
2023/12/14 02:02:12;;;;;;;12.30;11.90;;;6.60;99.90;;;;;;5110737;28;20213;-84
2023/12/14 02:04:43;;;;;;;12.07;11.67;;;6.50;99.90;;;;;;5090409;28;20233;-84
2023/12/14 02:07:10;;;;;;;12.30;11.90;;;6.50;99.90;;;;;;5111553;28;20233;-84
2023/12/14 02:09:50;;;;;;;12.07;11.67;;;6.50;99.90;;;;;;5107791;28;20229;-84
2023/12/14 02:12:18;;;;;;;12.10;11.70;;;6.50;99.90;;;;;;5089222;28;20241;-85
2023/12/14 02:14:47;;;;;;;12.10;11.70;;;6.50;99.90;;;;;;5087929;28;20242;-84
2023/12/14 02:17:26;;;;;;;12.40;12.00;;;6.50;99.90;;;;;;5086151;28;20230;-85
2023/12/14 02:19:57;;;;;;;12.23;11.83;;;6.50;99.90;;;;;;5095929;28;20226;-84
2023/12/14 02:22:24;;;;;;;12.20;11.80;;;6.50;99.90;;;;;;5088797;28;20226;-84
2023/12/14 02:24:57;;;;;;;12.20;11.80;;;6.40;99.90;;;;;;5090190;28;20230;-84
2023/12/14 02:27:24;;;;;;;12.40;12.00;;;6.40;99.90;;;;;;5087795;28;20234;-85
2023/12/14 02:29:54;;;;;;;12.20;11.80;;;6.40;99.90;;;;;;5089749;28;20215;-84
2023/12/14 02:32:22;;;;;;;11.93;11.53;;;6.50;99.90;;;;;;5090372;28;20230;-85
2023/12/14 02:37:32;;;;;;;12.10;11.70;;;6.50;99.90;;;;;;5086906;28;20228;-84
2023/12/14 02:40:09;;;;;;;12.20;11.80;;;6.50;99.90;;;;;;5089495;28;20284;-85
2023/12/14 02:42:37;;;;;;;12.10;11.70;;;6.50;99.90;;;;;;5071381;28;20222;-84
2023/12/14 02:45:07;;;;;;;11.97;11.57;;;6.50;99.90;;;;;;5089242;28;20245;-85
2023/12/14 02:47:36;;;;;;;12.00;11.60;;;6.50;99.90;;;;;;5088979;28;20230;-85
2023/12/14 02:50:05;;;;;;;12.20;11.80;;;6.50;99.90;;;;;;5089081;28;20226;-84
2023/12/14 02:52:44;;;;;;;12.00;11.60;;;6.50;99.90;;;;;;5088476;28;20296;-84
2023/12/14 02:55:15;;;;;;;12.20;11.80;;;6.50;99.90;;;;;;5069523;28;20233;-86
2023/12/14 02:57:42;;;;;;;12.10;11.70;;;6.50;99.90;;;;;;5089311;28;20234;-84
2023/12/14 03:00:13;;;;;;;12.00;11.60;;;6.50;99.90;;;;;;5088624;28;20395;-84
2023/12/14 03:02:41;;;;;;;11.97;11.57;;;6.50;99.90;;;;;;5086870;28;20345;-85
2023/12/14 03:05:11;;;;;;;12.10;11.70;;;6.40;99.90;;;;;;5087959;28;20238;-85
2023/12/14 03:07:50;;;;;;;11.90;11.50;;;6.30;99.90;;;;;;5087923;28;20283;-84
2023/12/14 03:10:21;;;;;;;11.67;11.27;;;6.30;99.90;;;;;;5087642;28;20280;-85
2023/12/14 03:12:48;;;;;;;12.13;11.73;;;6.20;99.90;;;;;;5087598;28;20210;-85
2023/12/14 03:15:19;;;;;;;11.93;11.53;;;6.20;99.90;;;;;;5088143;28;20288;-85
2023/12/14 03:17:47;;;;;;;11.97;11.57;;;6.20;99.90;;;;;;5087837;28;20252;-84
2023/12/14 03:20:26;;;;;;;12.17;11.77;;;6.20;99.90;;;;;;5087948;28;20257;-84
2023/12/14 03:22:55;;;;;;;12.00;11.60;;;6.20;99.90;;;;;;5087518;28;20226;-84
2023/12/14 03:25:36;;;;;;;12.07;11.67;;;6.20;99.90;;;;;;5087747;28;20238;-84
2023/12/14 03:28:04;;;;;;;11.77;11.37;;;6.20;99.90;;;;;;5088038;28;20238;-85
2023/12/14 03:30:33;;;;;;;11.90;11.50;;;6.20;99.90;;;;;;5087738;28;20229;-85
2023/12/14 03:33:01;;;;;;;12.00;11.60;;;6.20;99.90;;;;;;5088243;28;20283;-85
2023/12/14 03:35:41;;;;;;;12.03;11.63;;;6.10;99.90;;;;;;5101190;28;20284;-85
2023/12/14 03:38:09;;;;;;;11.87;11.47;;;6.10;99.90;;;;;;5103088;28;20226;-85
2023/12/14 03:43:35;;;;;;;11.87;11.47;;;6.10;99.90;;;;;;5095258;28;20222;-84
2023/12/14 03:46:06;;;;;;;11.60;11.20;;;6.00;99.90;;;;;;5099987;28;20264;-85
2023/12/14 03:48:33;;;;;;;11.60;11.20;;;5.90;99.90;;;;;;5099081;28;20229;-85
2023/12/14 03:51:04;;;;;;;11.77;11.37;;;5.90;99.90;;;;;;5111028;28;20241;-84
2023/12/14 03:53:34;;;;;;;11.70;11.30;;;5.80;99.90;;;;;;5108274;28;20321;-84
2023/12/14 03:56:13;;;;;;;11.90;11.50;;;5.80;99.90;;;;;;5108948;28;20314;-84
2023/12/14 03:58:41;;;;;;;11.90;11.50;;;5.80;99.90;;;;;;5107363;28;20281;-84
2023/12/14 04:01:09;;;;;;;11.97;11.57;;;5.90;99.90;;;;;;5107559;28;20251;-84
2023/12/14 04:06:18;;;;;;;12.07;11.67;;;5.90;99.90;;;;;;5106382;28;20288;-84
2023/12/14 04:08:58;;;;;;;11.67;11.27;;;5.90;99.90;;;;;;5111846;28;20225;-84
2023/12/14 04:11:28;;;;;;;11.30;10.90;;;5.90;99.90;;;;;;5113512;28;20217;-84
2023/12/14 04:13:57;;;;;;;11.70;11.30;;;6.00;99.90;;;;;;5108965;28;20256;-84
2023/12/14 04:16:26;;;;;;;11.67;11.27;;;6.00;99.90;;;;;;5110117;28;20233;-84
2023/12/14 04:18:54;;;;;;;11.60;11.20;;;6.10;99.90;;;;;;5115045;28;20209;-85
2023/12/14 04:21:34;;;;;;;11.17;10.77;;;6.10;99.90;;;;;;5114620;28;20234;-85
2023/12/14 04:24:03;;;;;;;11.60;11.20;;;6.20;99.90;;;;;;5106191;28;20229;-84
2023/12/14 04:26:34;;;;;;;11.30;10.90;;;6.20;99.90;;;;;;5105557;28;20229;-84
2023/12/14 04:29:01;;;;;;;11.37;10.97;;;6.20;99.90;;;;;;5107858;28;20256;-84
2023/12/14 04:31:32;;;;;;;11.17;10.77;;;6.30;99.90;;;;;;5107288;28;20233;-85
2023/12/14 04:34:00;;;;;;;11.30;10.90;;;6.30;99.90;;;;;;5098651;28;20233;-85
2023/12/14 04:36:38;;;;;;;11.30;10.90;;;6.30;99.90;;;;;;5106729;28;20237;-85
2023/12/14 04:39:19;;;;;;;11.47;11.07;;;6.30;99.90;;;;;;5107028;28;20229;-85
2023/12/14 04:41:48;;;;;;;11.40;11.00;;;6.20;99.90;;;;;;5107411;28;20217;-85
2023/12/14 04:44:15;;;;;;;11.33;10.93;;;6.20;99.90;;;;;;5089161;28;20241;-85
2023/12/14 04:46:44;;;;;;;11.50;11.10;;;6.20;99.90;;;;;;5085934;28;20602;-84
2023/12/14 04:49:24;;;;;;;11.80;11.40;;;6.20;99.90;;;;;;5086058;28;20237;-84
2023/12/14 04:51:52;;;;;;;11.57;11.17;;;6.20;99.90;;;;;;5106397;28;20229;-85
2023/12/14 04:54:31;;;;;;;11.17;10.77;;;6.20;99.90;;;;;;5104445;28;20244;-84
2023/12/14 04:57:12;;;;;;;11.47;11.07;;;6.10;99.90;;;;;;5087100;28;20260;-84
2023/12/14 04:59:50;;;;;;;11.53;11.13;;;6.10;99.90;;;;;;5095388;28;20233;-85
2023/12/14 05:02:17;;;;;;;11.63;11.23;;;6.10;99.90;;;;;;5105754;28;20225;-85
2023/12/14 05:04:46;;;;;;;11.30;10.90;;;6.10;99.90;;;;;;5101115;28;21030;-84
2023/12/14 05:07:26;;;;;;;11.37;10.97;;;6.10;99.90;;;;;;5107642;28;20229;-84
2023/12/14 05:09:54;;;;;;;11.50;11.10;;;6.20;99.90;;;;;;5106791;28;20241;-85
2023/12/14 05:12:26;;;;;;;11.20;10.80;;;6.20;99.90;;;;;;5107072;28;20225;-85
2023/12/14 05:14:54;;;;;;;11.20;10.80;;;6.20;99.90;;;;;;5089345;28;20245;-85
2023/12/14 05:17:23;;;;;;;11.20;10.80;;;6.20;99.90;;;;;;5089116;28;20241;-84
2023/12/14 05:19:52;;;;;;;11.30;10.90;;;6.30;99.90;;;;;;5086807;28;20230;-84
2023/12/14 05:22:21;;;;;;;11.80;11.40;;;6.30;99.90;;;;;;5086348;28;20327;-84
2023/12/14 05:27:31;;;;;;;11.60;11.20;;;6.30;99.90;;;;;;5085433;28;20225;-85
2023/12/14 05:29:58;;;;;;;11.60;11.20;;;6.30;99.90;;;;;;5086597;28;20261;-85
2023/12/14 05:32:30;;;;;;;11.63;11.23;;;6.30;99.90;;;;;;5085947;28;20253;-85
2023/12/14 05:35:00;;;;;;;11.50;11.10;;;6.30;99.90;;;;;;5086330;28;20234;-84
2023/12/14 05:37:27;;;;;;;11.80;11.40;;;6.30;99.90;;;;;;5087684;28;20249;-85
2023/12/14 05:39:55;;;;;;;11.50;11.10;;;6.30;99.90;;;;;;5087944;28;20253;-85
2023/12/14 05:42:35;;;;;;;11.20;10.80;;;6.30;99.90;;;;;;5088161;28;20230;-84
2023/12/14 05:45:21;;;;;;;11.30;10.90;;;6.30;99.90;;;;;;5088289;28;20230;-85
2023/12/14 05:47:59;;;;;;;11.17;10.77;;;6.30;99.90;;;;;;5085533;28;20320;-84
2023/12/14 05:50:38;;;;;;;11.20;10.80;;;6.30;99.90;;;;;;5087424;28;20257;-84
2023/12/14 05:53:07;;;;;;;11.10;10.70;;;6.30;99.90;;;;;;5086466;28;20229;-83
2023/12/14 05:55:38;;;;;;;10.90;10.60;;;6.30;99.90;;;;;;5084497;28;20229;-84
2023/12/14 05:58:07;;;;;;;10.93;10.60;;;6.30;99.90;;;;;;5084715;28;20289;-85
2023/12/14 06:00:39;;;;;;;10.80;10.50;;;6.30;99.90;;;;;;5084283;28;20236;-84
2023/12/14 06:03:06;;;;;;;10.77;10.47;;;6.30;99.90;;;;;;5087142;28;20241;-84
2023/12/14 06:05:45;;;;;;;10.83;10.53;;;6.30;99.90;;;;;;5090427;28;20214;-84
2023/12/14 06:08:14;;;;;;;11.00;10.60;;;6.30;99.90;;;;;;5090133;28;20746;-84
2023/12/14 06:10:53;;;;;;;10.70;10.40;;;6.30;99.90;;;;;;5088834;28;20235;-84
2023/12/14 06:13:21;;;;;;;10.80;10.50;;;6.20;99.90;;;;;;5088734;28;20304;-83
2023/12/14 06:15:54;;;;;;;10.80;10.50;;;6.20;99.90;;;;;;5101516;28;20231;-81
2023/12/14 06:18:21;;;;;;;10.87;10.57;;;6.30;99.90;;;;;;5098126;28;20219;-83
2023/12/14 06:20:50;;;;;;;10.40;10.10;;;6.30;99.90;;;;;;5086989;28;20226;-83
2023/12/14 06:23:29;;;;;;;10.40;10.10;;;6.30;99.90;;;;;;5088091;28;20234;-83
2023/12/14 06:25:58;;;;;;;10.70;10.40;;;6.30;99.90;;;;;;5070044;28;20225;-83
2023/12/14 06:28:27;;;;;;;10.80;10.50;;;6.30;99.90;;;;;;5088674;28;20230;-83
2023/12/14 06:31:01;;;;;;;11.03;10.63;;;6.30;99.90;;;;;;5088731;28;20226;-85
2023/12/14 06:33:28;;;;;;;11.00;10.60;;;6.30;99.90;;;;;;5088110;28;20230;-83
2023/12/14 06:35:56;;;;;;;10.90;10.50;;;6.30;99.90;;;;;;5106045;28;20316;-83
2023/12/14 06:38:36;;;;;;;11.30;10.90;;;6.30;99.90;;;;;;5105882;28;20226;-83
2023/12/14 06:41:04;;;;;;;10.63;10.33;;;6.30;99.90;;;;;;5106056;28;20213;-86
2023/12/14 06:43:32;;;;;;;11.10;10.70;;;6.30;99.90;;;;;;5105494;28;20213;-86
2023/12/14 06:46:05;;;;;;;11.13;10.73;;;6.30;99.90;;;;;;5105874;28;20229;-84
2023/12/14 06:48:32;;;;;;;11.10;10.70;;;6.30;99.90;;;;;;5105311;28;20247;-85
2023/12/14 06:51:01;;;;;;;11.40;11.00;;;6.20;99.90;;;;;;5105737;28;20234;-85
2023/12/14 06:53:39;;;;;;;11.90;11.50;;;6.20;99.90;;;;;;5105537;28;20241;-84
2023/12/14 06:56:11;;;;;;;12.00;11.60;;;6.10;99.90;;;;;;5105976;28;20229;-84
2023/12/14 06:58:38;;;;;;;12.20;11.80;;;6.10;99.90;;;;;;5106686;28;20233;-84
2023/12/14 07:01:26;;;;;;;11.63;11.23;;;6.10;99.90;;;;;;5105762;28;20286;-83
2023/12/14 07:03:55;;;;;;;11.70;11.30;;;6.10;99.90;;;;;;5106343;28;20287;-84
2023/12/14 07:06:35;;;;;;;11.50;11.10;;;6.10;99.90;;;;;;5105136;28;20222;-84
2023/12/14 07:09:05;;;;;;;11.60;11.20;;;6.10;99.90;;;;;;5105874;28;20237;-84
2023/12/14 07:14:28;;;;;;;12.00;11.60;;;6.20;99.90;;;;;;5105261;28;20233;-84
2023/12/14 07:16:59;;;;;;;12.00;11.60;;;6.20;99.90;;;;;;5105605;28;20229;-84
2023/12/14 07:19:26;;;;;;;11.80;11.40;;;6.20;99.90;;;;;;5106018;28;20247;-84
2023/12/14 07:22:05;;;;;;;11.60;11.20;;;6.20;99.90;;;;;;5105523;28;20229;-84
2023/12/14 07:24:34;;;;;;;11.60;11.20;;;6.20;99.90;;;;;;5105665;28;20229;-84
2023/12/14 07:27:13;;;;;;;11.60;11.20;;;6.20;99.90;;;;;;5105037;28;20247;-84
2023/12/14 07:29:41;;;;;;;11.43;11.03;;;6.20;99.90;;;;;;5106223;28;20279;-83
2023/12/14 07:32:14;;;;;;;11.70;11.30;;;6.20;99.90;;;;;;5108313;28;20381;-83
2023/12/14 07:34:41;;;;;;;11.10;10.70;;;6.30;99.90;;;;;;5105458;28;20229;-83
2023/12/14 07:37:11;;;;;;;11.43;11.03;;;6.30;99.90;;;;;;5105432;28;20221;-84
2023/12/14 07:39:39;;;;;;;11.40;11.00;;;6.40;99.90;;;;;;5106148;28;20258;-85
2023/12/14 07:42:19;;;;;;;11.47;11.07;;;6.40;99.90;;;;;;5105628;28;20233;-84
2023/12/14 07:44:47;;;;;;;11.70;11.30;;;6.40;99.90;;;;;;5105031;28;20270;-83
2023/12/14 07:47:20;;;;;;;11.63;11.23;;;6.40;99.90;;;;;;5105452;28;20251;-83
2023/12/14 07:49:47;;;;;;;11.10;10.70;;;6.40;99.90;;;;;;5105099;28;20221;-84
2023/12/14 07:52:15;;;;;;;10.90;10.60;;;6.40;99.90;;;;;;5104656;28;20225;-86
2023/12/14 07:54:55;;;;;;;11.10;10.70;;;6.40;99.90;;;;;;5103169;28;20237;-85
2023/12/14 07:57:23;;;;;;;10.60;10.30;;;6.30;99.90;;;;;;5103685;28;20213;-82
2023/12/14 08:02:35;;;;;;;10.43;10.13;;;6.30;99.90;;;;;;5104741;28;20262;-84
2023/12/14 08:05:02;;;;;;;10.80;10.50;;;6.20;99.90;;;;;;5106983;28;20229;-83
2023/12/14 08:10:10;;;;;;;11.30;10.90;;;6.20;99.90;;;;;;5108518;28;20251;-84
2023/12/14 08:12:39;;;;;;;11.13;10.73;;;6.20;99.90;;;;;;5109704;28;20240;-85
2023/12/14 08:15:09;;;;;;;11.23;10.83;;;6.30;99.90;;;;;;5105059;28;20295;-84
2023/12/14 08:17:41;;;;;;;11.40;11.00;;;6.40;99.90;;;;;;5105380;28;20218;-85
2023/12/14 08:20:11;;;;;;;11.20;10.80;;;6.40;99.90;;;;;;5116109;28;20276;-83
2023/12/14 08:22:43;;;;;;;10.90;10.60;;;6.50;99.90;;;;;;5110757;28;20233;-84
2023/12/14 08:25:16;;;;;;;11.00;10.70;;;6.50;99.90;;;;;;5094275;28;20260;-87
2023/12/14 08:27:44;;;;;;;11.27;10.87;;;6.60;99.90;;;;;;5105294;28;20227;-84
2023/12/14 08:30:14;;;;;;;10.73;10.43;;;6.60;99.90;;;;;;5104738;28;20230;-85
2023/12/14 08:33:01;;;;;;;10.97;10.60;;;6.60;99.90;;;;;;5105089;28;20229;-86
2023/12/14 08:35:39;;;;;;;11.07;10.67;;;6.60;99.90;;;;;;5104709;28;20237;-85
2023/12/14 08:38:08;;;;;;;11.30;10.90;;;6.70;99.90;;;;;;5104977;28;20213;-84
2023/12/14 08:40:47;;;;;;;11.30;10.90;;;6.70;99.90;;;;;;5104075;28;20225;-86
2023/12/14 08:43:16;;;;;;;11.30;10.90;;;6.70;99.90;;;;;;5104660;28;20233;-85
2023/12/14 08:45:55;;;;;;;10.87;10.53;;;6.80;99.90;;;;;;5103183;28;20334;-86
2023/12/14 08:48:27;;;;;;;11.20;10.80;;;6.60;99.90;;;;;;5104347;28;20340;-85
2023/12/14 08:50:55;;;;;;;11.13;10.73;;;6.50;99.90;;;;;;5104035;28;20292;-85
2023/12/14 08:53:23;;;;;;;11.00;10.60;;;6.60;99.90;;;;;;5103903;28;20230;-86
2023/12/14 08:56:02;;;;;;;11.60;11.20;;;6.60;99.90;;;;;;5102686;28;20233;-86
2023/12/14 08:58:30;;;;;;;11.40;11.00;;;6.70;99.90;;;;;;5103746;28;20229;-87
2023/12/14 09:03:41;;;;;;;11.53;11.13;;;6.70;99.90;;;;;;5103370;28;20221;-85
2023/12/14 09:06:09;;;;;;;11.50;11.10;;;6.60;99.90;;;;;;5104094;28;20225;-87
2023/12/14 09:08:37;;;;;;;11.40;11.00;;;6.60;99.90;;;;;;5104252;28;20308;-86
2023/12/14 09:11:16;;;;;;;11.30;10.90;;;6.60;99.90;;;;;;5105135;28;20225;-84
2023/12/14 09:13:44;;;;;;;11.00;10.70;;;6.60;99.90;;;;;;5085774;28;20248;-85
2023/12/14 09:16:14;;;;;;;11.50;11.10;;;6.70;99.90;;;;;;5083778;28;20300;-85
2023/12/14 09:21:30;;;;;;;10.73;10.43;;;6.80;99.90;;;;;;5083908;28;20222;-87
2023/12/14 09:24:10;;;;;;;10.70;10.40;;;6.80;99.90;;;;;;5084335;28;20234;-86
2023/12/14 09:26:40;;;;;;;10.80;10.50;;;6.80;99.90;;;;;;5083781;28;20226;-85
2023/12/14 09:29:08;;;;;;;10.80;10.50;;;6.80;99.90;;;;;;5084393;28;20244;-86
2023/12/14 09:31:47;;;;;;;10.70;10.40;;;6.80;99.90;;;;;;5084251;28;20312;-87
2023/12/14 09:34:18;;;;;;;10.83;10.53;;;6.80;99.90;;;;;;5085403;28;20252;-85
2023/12/14 09:36:45;;;;;;;10.80;10.50;;;6.90;99.90;;;;;;5086054;28;20248;-86
2023/12/14 09:39:15;;;;;;;10.77;10.47;;;6.90;99.90;;;;;;5087111;28;20276;-84
2023/12/14 09:41:44;;;;;;;11.60;11.20;;;7.00;99.90;;;;;;5087146;28;20218;-84
2023/12/14 09:44:13;;;;;;;11.17;10.87;;;7.10;99.90;;;;;;5087569;28;20230;-85
2023/12/14 09:46:48;;;;;;;11.30;11.00;;;7.20;99.90;;;;;;5086245;28;20230;-87
2023/12/14 09:49:21;;;;;;;11.03;10.73;;;7.30;99.90;;;;;;5087273;28;20224;-84
2023/12/14 09:52:00;;;;;;;11.27;10.87;;;7.50;99.90;;;;;;5087505;28;20284;-86
2023/12/14 09:54:28;;;;;;;10.93;10.63;;;7.50;99.90;;;;;;5087670;28;20226;-85
2023/12/14 09:57:08;;;;;;;11.30;10.90;;;7.60;99.90;;;;;;5090645;28;20238;-83
2023/12/14 09:59:36;;;;;;;11.20;10.80;;;7.60;99.90;;;;;;5092097;28;20230;-88
2023/12/14 10:07:44;;;;;;;10.70;10.40;;;7.60;99.90;;;;;;5093693;28;20226;-83
2023/12/14 10:10:14;;;;;;;10.77;10.47;;;7.60;99.90;;;;;;5089213;28;20233;-85
2023/12/14 10:15:54;;;;;;;10.60;10.30;;;7.60;99.90;;;;;;5091150;28;20249;-86
2023/12/14 10:18:26;;;;;;;11.00;10.70;;;7.70;99.90;;;;;;5098079;28;20226;-86
2023/12/14 10:23:40;;;;;;;10.70;10.40;;;8.00;99.90;;;;;;5088418;28;20222;-85
2023/12/14 10:26:10;;;;;;;10.73;10.43;;;7.90;99.90;;;;;;5087952;28;20233;-85
2023/12/14 10:28:39;;;;;;;10.67;10.37;;;8.00;99.90;;;;;;5094522;28;20245;-85
2023/12/14 10:31:10;;;;;;;10.73;10.43;;;8.00;99.90;;;;;;5091740;28;20214;-85
2023/12/14 10:33:38;;;;;;;11.13;10.73;;;7.90;99.90;;;;;;5085699;28;20303;-84
2023/12/14 10:38:55;;;;;;;11.00;10.60;;;8.00;99.90;;;;;;5086189;28;20218;-84
2023/12/14 10:41:23;;;;;;;11.00;10.70;;;8.00;99.90;;;;;;5086802;28;20237;-85
2023/12/14 10:43:52;;;;;;;10.60;10.30;;;8.00;99.90;;;;;;5086722;28;20294;-83
2023/12/14 10:46:22;;;;;;;10.50;10.20;;;8.00;99.90;;;;;;5085865;28;20238;-84
2023/12/14 10:48:51;;;;;;;10.40;10.10;;;8.00;99.90;;;;;;5084951;28;20233;-85
2023/12/14 10:51:42;;;;;;;10.60;10.30;;;8.00;99.90;;;;;;5086435;28;20241;-84
2023/12/14 10:54:10;;;;;;;10.27;9.97;;;7.90;99.90;;;;;;5086106;28;20272;-84
2023/12/14 10:56:37;;;;;;;10.30;10.00;;;7.80;99.90;;;;;;5085643;28;20238;-85
2023/12/14 10:59:17;;;;;;;10.30;10.00;;;7.90;99.90;;;;;;5086114;28;20226;-84
2023/12/14 11:01:45;;;;;;;10.10;9.80;;;7.90;99.90;;;;;;5086378;28;20416;-84
2023/12/14 11:06:55;;;;;;;10.30;10.00;;;7.90;99.90;;;;;;5085624;28;20234;-84
2023/12/14 11:09:24;;;;;;;10.07;9.77;;;7.90;99.90;;;;;;5086533;28;20211;-83
2023/12/14 11:12:10;;;;;;;10.67;10.37;;;8.00;99.90;;;;;;5087084;28;20222;-83
2023/12/14 11:14:39;;;;;;;10.20;9.90;;;8.00;99.90;;;;;;5086061;28;20230;-84
2023/12/14 11:17:08;;;;;;;10.10;9.80;;;8.20;99.90;;;;;;5086167;28;20230;-84
2023/12/14 11:19:39;;;;;;;10.23;9.93;;;8.10;99.90;;;;;;5085559;28;20282;-84
2023/12/14 11:25:21;;;;;;;10.70;10.40;;;8.10;99.90;;;;;;5085592;28;20264;-83
2023/12/14 11:27:50;;;;;;;10.50;10.20;;;8.10;99.90;;;;;;5086108;28;20260;-85
2023/12/14 11:30:19;;;;;;;10.07;9.77;;;8.20;99.90;;;;;;5086358;28;20260;-84
2023/12/14 11:32:59;;;;;;;10.40;10.10;;;8.20;99.90;;;;;;5086191;28;20230;-83
2023/12/14 11:35:27;;;;;;;10.60;10.30;;;8.30;99.90;;;;;;5085678;28;20252;-85
2023/12/14 11:38:10;;;;;;;10.20;9.90;;;8.20;99.90;;;;;;5085737;28;20293;-84
2023/12/14 11:43:24;;;;;;;10.00;9.70;;;8.20;99.90;;;;;;5085498;28;20261;-84
2023/12/14 11:45:52;;;;;;;10.20;9.90;;;8.20;99.90;;;;;;5085801;28;20234;-84
2023/12/14 11:48:20;;;;;;;10.23;9.93;;;8.10;99.90;;;;;;5129115;22;20236;-81
2023/12/14 11:50:48;;;;;;;10.17;9.87;;;8.10;99.90;;;;;;5128084;27;20244;-80
2023/12/14 11:53:16;;;;;;;10.20;9.90;;;8.30;99.90;;;;;;5126669;28;20256;-81
2023/12/14 11:55:44;;;;;;;10.00;9.70;;;8.40;99.90;;;;;;5125927;27;20236;-82
2023/12/14 11:58:15;;;;;;;10.40;10.10;;;8.60;99.90;;;;;;5110349;28;20241;-82
2023/12/14 12:00:42;;;;;;;10.33;10.03;;;8.80;99.90;;;;;;5106202;28;20233;-82
2023/12/14 12:03:11;;;;;;;10.50;10.20;;;9.00;99.90;;;;;;5105159;28;20221;-82
2023/12/14 12:05:40;;;;;;;10.57;10.27;;;9.10;99.90;;;;;;5105416;28;20229;-82
2023/12/14 12:08:08;;;;;;;10.43;10.13;;;9.10;99.90;;;;;;5105215;28;20230;-82
2023/12/14 12:10:38;;;;;;;10.80;10.50;;;9.20;99.90;;;;;;5106528;28;20237;-82
2023/12/14 12:13:08;;;;;;;10.90;10.60;;;9.10;99.90;;;;;;5106539;28;20245;-82
2023/12/14 12:15:37;;;;;;;10.80;10.50;;;8.80;99.90;;;;;;5105245;28;20291;-82
2023/12/14 12:18:07;;;;;;;11.10;10.80;;;8.70;99.90;;;;;;5111748;27;20299;-82
2023/12/14 12:20:34;;;;;;;10.73;10.43;;;8.70;99.90;;;;;;5107555;28;20225;-82
2023/12/14 12:23:02;;;;;;;10.90;10.60;;;8.70;99.90;;;;;;5107138;28;20233;-82
2023/12/14 12:25:30;;;;;;;10.90;10.60;;;8.70;99.90;;;;;;5106152;28;20252;-82
2023/12/14 12:27:59;;;;;;;10.90;10.60;;;8.50;99.90;;;;;;5105908;28;20237;-82
2023/12/14 12:30:27;;;;;;;10.77;10.47;;;8.50;99.90;;;;;;5106335;28;20241;-82
2023/12/14 12:32:55;;;;;;;10.57;10.27;;;8.40;99.90;;;;;;5105606;28;20225;-82
2023/12/14 12:35:25;;;;;;;10.63;10.33;;;8.30;99.90;;;;;;5106457;28;20243;-82
2023/12/14 12:37:54;;;;;;;10.40;10.10;;;8.30;99.90;;;;;;5105943;28;20280;-81
2023/12/14 12:40:22;;;;;;;10.67;10.37;;;8.20;99.90;;;;;;5105551;28;20291;-82
2023/12/14 12:42:50;;;;;;;10.73;10.43;;;8.20;99.90;;;;;;5116957;28;20240;-81
2023/12/14 12:45:22;;;;;;;10.50;10.20;;;8.10;99.90;;;;;;5117531;28;20229;-82
2023/12/14 12:47:49;;;;;;;10.73;10.43;;;8.10;99.90;;;;;;5116311;28;20241;-82
2023/12/14 12:50:16;;;;;;;10.60;10.30;;;8.10;99.90;;;;;;5116617;28;20248;-82
2023/12/14 12:52:45;;;;;;;10.80;10.50;;;8.00;99.90;;;;;;5113054;28;20256;-81
2023/12/14 12:55:13;;;;;;;10.60;10.30;;;8.00;99.90;;;;;;5108180;28;20268;-82
2023/12/14 12:57:41;;;;;;;10.77;10.47;;;7.90;99.90;;;;;;5106989;28;20230;-84
2023/12/14 13:00:11;;;;;;;11.20;10.80;;;8.00;99.90;;;;;;5106732;28;20278;-81
2023/12/14 13:02:40;;;;;;;10.80;10.50;;;8.00;99.90;;;;;;5113443;28;20297;-80
2023/12/14 13:05:08;;;;;;;10.97;10.67;;;7.90;99.90;;;;;;5118092;27;20229;-81
2023/12/14 13:07:36;;;;;;;11.43;11.03;;;7.70;99.90;;;;;;5117799;27;20237;-80
2023/12/14 13:10:04;;;;;;;11.30;10.90;;;7.60;99.90;;;;;;5114834;28;20244;-80
2023/12/14 13:12:32;;;;;;;10.90;10.60;;;7.60;99.90;;;;;;5109094;28;20213;-80
2023/12/14 13:15:00;;;;;;;11.17;10.77;;;7.50;99.90;;;;;;5108624;28;20264;-81
2023/12/14 13:17:27;;;;;;;11.07;10.67;;;7.50;99.90;;;;;;5106488;28;20256;-81
2023/12/14 13:19:55;;;;;;;10.90;10.60;;;7.50;99.90;;;;;;5106284;28;20236;-81
2023/12/14 13:22:23;;;;;;;10.67;10.37;;;7.50;99.90;;;;;;5103080;28;20213;-81
2023/12/14 13:24:50;;;;;;;10.60;10.30;;;7.60;99.90;;;;;;5106544;28;20237;-81
2023/12/14 13:27:18;;;;;;;10.60;10.30;;;7.50;99.90;;;;;;5104673;28;20237;-83
2023/12/14 13:29:45;;;;;;;10.40;10.10;;;7.50;99.90;;;;;;5105951;28;20229;-81
2023/12/14 13:32:12;;;;;;;10.67;10.37;;;7.40;99.90;;;;;;5108686;28;20221;-82
2023/12/14 13:34:39;;;;;;;10.80;10.50;;;7.30;99.90;;;;;;5108022;28;20233;-81
2023/12/14 13:37:09;;;;;;;10.80;10.50;;;7.30;99.90;;;;;;5105736;28;20263;-81
2023/12/14 13:39:37;;;;;;;10.60;10.30;;;7.30;99.90;;;;;;5105043;28;20239;-81
2023/12/14 13:42:06;;;;;;;10.27;9.97;;;7.30;99.90;;;;;;5104815;28;20217;-81
2023/12/14 13:44:34;;;;;;;10.50;10.20;;;7.20;99.90;;;;;;5103918;28;20261;-82
2023/12/14 13:47:02;;;;;;;10.40;10.10;;;7.20;99.90;;;;;;5104145;28;20237;-82